Time;durP1;ratioP1;P1;durP2;ratioP2;P2;SDS_P1;SDS_P2;PMS_P1;PMS_P2;Temp;Humidity;BMP_temperature;BMP_pressure;BME280_temperature;BME280_humidity;BME280_pressure;Samples;Min_cycle;Max_cycle;Signal;HPM_P1;HPM_P2
2023/10/12 00:02:00;;;;;;;10.98;3.80;;;;;;;;;;4949899;28;20203;-75
2023/10/12 00:04:43;;;;;;;14.90;4.20;;;;;;;;;;4950706;28;20086;-76
2023/10/12 00:07:15;;;;;;;14.13;4.20;;;;;;;;;;4948360;28;20030;-76
2023/10/12 00:10:00;;;;;;;11.90;4.03;;;;;;;;;;4957801;28;20042;-75
2023/10/12 00:12:26;;;;;;;10.60;4.25;;;;;;;;;;4953239;28;20048;-76
2023/10/12 00:14:55;;;;;;;13.15;4.30;;;;;;;;;;4954471;28;20500;-76
2023/10/12 00:17:26;;;;;;;12.75;4.00;;;;;;;;;;4952258;28;21113;-76
2023/10/12 00:19:52;;;;;;;10.18;3.90;;;;;;;;;;4957323;28;20400;-77
2023/10/12 00:22:17;;;;;;;11.90;4.15;;;;;;;;;;4951941;28;20054;-76
2023/10/12 00:24:43;;;;;;;8.95;4.07;;;;;;;;;;4965326;28;20038;-77
2023/10/12 00:27:11;;;;;;;11.30;3.90;;;;;;;;;;4962223;28;20102;-76
2023/10/12 00:29:40;;;;;;;10.45;4.13;;;;;;;;;;4961845;28;20101;-77
2023/10/12 00:32:06;;;;;;;14.77;4.30;;;;;;;;;;4958125;28;20034;-77
2023/10/12 00:34:45;;;;;;;9.43;3.97;;;;;;;;;;4962913;28;20086;-77
2023/10/12 00:37:11;;;;;;;10.00;4.28;;;;;;;;;;4948474;28;20030;-78
2023/10/12 00:42:16;;;;;;;11.55;4.40;;;;;;;;;;4962254;28;20035;-77
2023/10/12 00:44:41;;;;;;;9.63;4.35;;;;;;;;;;4955476;28;20043;-77
2023/10/12 00:47:12;;;;;;;9.60;4.05;;;;;;;;;;4953035;28;20776;-77
2023/10/12 00:49:41;;;;;;;10.82;3.85;;;;;;;;;;4954734;28;20046;-76
2023/10/12 00:52:23;;;;;;;15.02;4.20;;;;;;;;;;4952077;28;20025;-75
2023/10/12 00:54:56;;;;;;;12.63;4.55;;;;;;;;;;4947139;28;20070;-76
2023/10/12 00:57:22;;;;;;;14.93;4.40;;;;;;;;;;4957227;28;20275;-76
2023/10/12 00:59:51;;;;;;;9.13;3.97;;;;;;;;;;4956126;28;20085;-77
2023/10/12 01:02:20;;;;;;;13.27;4.18;;;;;;;;;;4957313;28;20053;-76
2023/10/12 01:04:48;;;;;;;16.10;4.47;;;;;;;;;;4954139;28;20061;-77
2023/10/12 01:07:19;;;;;;;13.50;4.28;;;;;;;;;;4954296;28;20038;-78
2023/10/12 01:09:48;;;;;;;12.40;4.10;;;;;;;;;;4954655;28;20042;-77
2023/10/12 01:12:14;;;;;;;9.50;3.58;;;;;;;;;;4958203;28;20031;-78
2023/10/12 01:14:45;;;;;;;10.35;3.60;;;;;;;;;;4960283;28;20130;-77
2023/10/12 01:17:24;;;;;;;10.45;4.45;;;;;;;;;;4951338;28;20114;-77
2023/10/12 01:19:51;;;;;;;9.65;4.05;;;;;;;;;;4940267;28;20043;-77
2023/10/12 01:22:25;;;;;;;13.50;4.20;;;;;;;;;;4952181;28;20049;-77
2023/10/12 01:27:22;;;;;;;10.40;4.13;;;;;;;;;;4952845;28;20030;-77
2023/10/12 01:29:51;;;;;;;12.63;4.10;;;;;;;;;;4960331;28;20162;-77
2023/10/12 01:34:53;;;;;;;13.25;4.30;;;;;;;;;;4963064;28;20310;-78
2023/10/12 01:37:23;;;;;;;9.60;4.13;;;;;;;;;;4930158;28;20045;-77
2023/10/12 01:39:58;;;;;;;11.50;4.30;;;;;;;;;;4954237;28;20019;-76
2023/10/12 01:45:17;;;;;;;13.15;4.28;;;;;;;;;;4949579;28;20210;-78
2023/10/12 01:47:44;;;;;;;10.45;4.25;;;;;;;;;;4951961;28;20053;-77
2023/10/12 01:50:10;;;;;;;13.82;4.30;;;;;;;;;;4959807;28;20030;-77
2023/10/12 01:52:36;;;;;;;11.32;4.50;;;;;;;;;;4955934;28;20033;-79
2023/10/12 01:55:16;;;;;;;10.13;4.45;;;;;;;;;;4946136;28;20030;-78
2023/10/12 01:57:52;;;;;;;10.70;4.25;;;;;;;;;;4951622;28;20082;-78
2023/10/12 02:00:24;;;;;;;12.40;4.35;;;;;;;;;;4955453;28;20274;-78
2023/10/12 02:03:00;;;;;;;11.10;4.03;;;;;;;;;;4955089;28;20106;-77
2023/10/12 02:05:29;;;;;;;9.43;4.00;;;;;;;;;;4960696;28;20097;-79
2023/10/12 02:07:56;;;;;;;12.18;4.07;;;;;;;;;;4952473;28;20027;-78
2023/10/12 02:10:24;;;;;;;10.90;3.85;;;;;;;;;;4951153;28;20045;-78
2023/10/12 02:12:55;;;;;;;11.90;4.13;;;;;;;;;;4933371;28;20026;-77
2023/10/12 02:15:23;;;;;;;15.00;3.63;;;;;;;;;;4955234;28;20030;-78
2023/10/12 02:17:50;;;;;;;15.30;4.10;;;;;;;;;;4955114;28;20363;-77
2023/10/12 02:20:18;;;;;;;10.18;3.90;;;;;;;;;;4956437;28;20323;-77
2023/10/12 02:22:44;;;;;;;12.68;4.10;;;;;;;;;;4958450;28;20031;-78
2023/10/12 02:27:42;;;;;;;13.07;3.90;;;;;;;;;;4947046;28;20098;-82
2023/10/12 02:30:13;;;;;;;9.57;3.50;;;;;;;;;;4952594;28;20261;-78
2023/10/12 02:32:46;;;;;;;8.30;3.60;;;;;;;;;;4955270;28;20035;-78
2023/10/12 02:35:15;;;;;;;10.15;3.70;;;;;;;;;;4954346;28;20597;-79
2023/10/12 02:37:42;;;;;;;13.05;3.80;;;;;;;;;;4955440;28;20829;-79
2023/10/12 02:40:09;;;;;;;12.00;4.10;;;;;;;;;;4954905;28;20125;-78
2023/10/12 02:42:41;;;;;;;9.65;3.97;;;;;;;;;;4961382;28;20019;-77
2023/10/12 02:47:40;;;;;;;10.75;3.60;;;;;;;;;;4948136;28;20042;-77
2023/10/12 02:52:35;;;;;;;11.00;3.92;;;;;;;;;;4954137;28;20054;-77
2023/10/12 02:57:55;;;;;;;13.40;3.80;;;;;;;;;;4953672;28;20051;-77
2023/10/12 03:00:34;;;;;;;8.18;3.92;;;;;;;;;;4957126;28;20590;-77
2023/10/12 03:03:09;;;;;;;11.57;4.05;;;;;;;;;;4932375;28;20258;-78
2023/10/12 03:05:46;;;;;;;10.55;3.75;;;;;;;;;;4943339;28;20038;-77
2023/10/12 03:08:14;;;;;;;13.23;3.83;;;;;;;;;;4948282;28;20026;-77
2023/10/12 03:10:47;;;;;;;12.23;3.90;;;;;;;;;;4954345;28;20253;-78
2023/10/12 03:13:25;;;;;;;12.13;3.80;;;;;;;;;;4945941;28;20709;-77
2023/10/12 03:15:57;;;;;;;10.88;3.88;;;;;;;;;;4952867;28;20041;-77
2023/10/12 03:18:26;;;;;;;14.63;4.07;;;;;;;;;;4962102;28;20137;-78
2023/10/12 03:21:04;;;;;;;9.57;4.10;;;;;;;;;;4951492;28;20033;-77
2023/10/12 03:23:33;;;;;;;11.45;4.00;;;;;;;;;;4950748;28;20159;-78
2023/10/12 03:26:04;;;;;;;11.75;4.03;;;;;;;;;;4948836;28;20523;-77
2023/10/12 03:28:30;;;;;;;10.65;3.78;;;;;;;;;;4955529;28;20034;-77
2023/10/12 03:31:15;;;;;;;14.35;4.10;;;;;;;;;;4947078;28;20035;-76
2023/10/12 03:33:53;;;;;;;12.25;4.13;;;;;;;;;;4959545;28;20022;-77
2023/10/12 03:36:25;;;;;;;11.93;4.13;;;;;;;;;;4957070;28;20085;-77
2023/10/12 03:44:22;;;;;;;12.50;4.30;;;;;;;;;;4959351;28;20459;-77
2023/10/12 03:46:57;;;;;;;15.68;4.20;;;;;;;;;;4956070;28;20253;-76
2023/10/12 03:51:58;;;;;;;11.48;3.97;;;;;;;;;;4952497;28;20031;-77
2023/10/12 03:54:32;;;;;;;10.45;3.97;;;;;;;;;;4960496;28;20041;-76
2023/10/12 03:57:07;;;;;;;13.48;4.45;;;;;;;;;;4956152;28;20038;-76
2023/10/12 04:00:22;;;;;;;10.40;3.95;;;;;;;;;;4950159;28;20042;-78
2023/10/12 04:02:41;;;;;;;10.32;3.90;;;;;;;;;;4952333;28;20106;-77
2023/10/12 04:05:36;;;;;;;12.38;4.32;;;;;;;;;;4950667;28;20050;-75
2023/10/12 04:18:47;;;;;;;15.73;4.82;;;;;;;;;;4953492;28;20019;-76
2023/10/12 04:21:18;;;;;;;13.98;4.50;;;;;;;;;;4954606;28;20023;-77
2023/10/12 04:24:24;;;;;;;12.25;4.75;;;;;;;;;;4955980;28;20096;-76
2023/10/12 04:29:08;;;;;;;13.77;4.57;;;;;;;;;;4958394;28;20030;-77
2023/10/12 04:41:39;;;;;;;9.15;4.40;;;;;;;;;;4956197;28;20022;-77
2023/10/12 04:44:35;;;;;;;12.68;4.22;;;;;;;;;;4957350;28;20019;-78
2023/10/12 04:47:09;;;;;;;15.25;4.20;;;;;;;;;;4951645;28;20031;-78
2023/10/12 04:57:26;;;;;;;11.10;4.65;;;;;;;;;;4956437;28;20046;-77
2023/10/12 05:00:03;;;;;;;11.95;5.10;;;;;;;;;;4956610;28;20050;-77
2023/10/12 05:02:33;;;;;;;11.93;4.47;;;;;;;;;;4958848;28;20022;-77
2023/10/12 05:05:15;;;;;;;10.93;4.45;;;;;;;;;;4950026;28;20061;-76
2023/10/12 05:07:58;;;;;;;12.27;4.50;;;;;;;;;;4931616;28;20489;-76
2023/10/12 05:10:31;;;;;;;13.43;4.68;;;;;;;;;;4950294;28;20495;-77
2023/10/12 05:13:04;;;;;;;9.52;4.50;;;;;;;;;;4948697;28;20023;-76
2023/10/12 05:15:46;;;;;;;16.10;4.68;;;;;;;;;;4950540;28;20549;-78
2023/10/12 05:18:13;;;;;;;17.30;4.57;;;;;;;;;;4955732;28;20026;-78
2023/10/12 05:20:41;;;;;;;14.55;4.28;;;;;;;;;;4959928;28;20061;-77
2023/10/12 05:23:07;;;;;;;14.55;4.32;;;;;;;;;;4941716;28;20057;-78
2023/10/12 05:25:47;;;;;;;14.75;4.93;;;;;;;;;;4929491;28;20101;-79
2023/10/12 05:28:19;;;;;;;14.63;4.40;;;;;;;;;;4950316;28;20278;-76
2023/10/12 05:30:54;;;;;;;13.20;4.60;;;;;;;;;;4933597;28;20031;-75
2023/10/12 05:36:23;;;;;;;14.98;4.63;;;;;;;;;;4943049;28;20027;-76
2023/10/12 05:38:49;;;;;;;11.95;4.80;;;;;;;;;;4933615;28;20034;-75
2023/10/12 05:41:34;;;;;;;16.23;4.95;;;;;;;;;;4956837;28;20027;-77
2023/10/12 05:44:08;;;;;;;12.57;5.13;;;;;;;;;;4954300;28;20031;-80
2023/10/12 05:46:34;;;;;;;10.40;4.90;;;;;;;;;;4957573;28;20123;-79
2023/10/12 05:49:02;;;;;;;15.55;5.20;;;;;;;;;;4950328;28;20359;-79
2023/10/12 05:51:27;;;;;;;10.30;4.93;;;;;;;;;;4939008;28;20423;-81
2023/10/12 05:54:02;;;;;;;14.10;4.78;;;;;;;;;;4950666;28;20033;-79
2023/10/12 05:56:34;;;;;;;14.73;4.93;;;;;;;;;;4939150;28;20031;-81
2023/10/12 05:58:59;;;;;;;14.88;4.65;;;;;;;;;;4933700;28;20149;-78
2023/10/12 06:01:35;;;;;;;12.65;4.90;;;;;;;;;;4954531;28;20325;-79
2023/10/12 06:04:08;;;;;;;20.15;4.90;;;;;;;;;;4937967;28;20038;-77
2023/10/12 06:06:35;;;;;;;13.15;4.95;;;;;;;;;;4948861;28;20081;-77
2023/10/12 06:09:15;;;;;;;12.52;5.60;;;;;;;;;;4940000;28;20027;-79
2023/10/12 06:11:46;;;;;;;14.35;4.95;;;;;;;;;;4954529;28;20153;-76
2023/10/12 06:14:19;;;;;;;15.65;4.90;;;;;;;;;;4960331;28;20090;-76
2023/10/12 06:16:45;;;;;;;13.27;4.90;;;;;;;;;;4946731;28;20110;-78
2023/10/12 06:19:28;;;;;;;14.35;5.15;;;;;;;;;;4951567;28;20059;-76
2023/10/12 06:21:53;;;;;;;18.67;4.95;;;;;;;;;;4950892;28;20639;-76
2023/10/12 06:24:33;;;;;;;12.32;4.90;;;;;;;;;;4951685;28;20035;-76
2023/10/12 06:26:59;;;;;;;12.18;5.03;;;;;;;;;;4937483;28;20023;-75
2023/10/12 06:29:25;;;;;;;14.90;5.00;;;;;;;;;;4939209;28;20026;-76
2023/10/12 06:31:53;;;;;;;14.45;4.70;;;;;;;;;;4943089;28;20080;-76
2023/10/12 06:34:19;;;;;;;17.30;4.97;;;;;;;;;;4941800;28;20034;-76
2023/10/12 06:36:45;;;;;;;17.27;5.32;;;;;;;;;;4929455;28;20061;-75
2023/10/12 06:46:53;;;;;;;13.73;5.55;;;;;;;;;;4947482;28;20027;-76
2023/10/12 06:49:22;;;;;;;15.07;5.18;;;;;;;;;;4942408;28;20027;-75
2023/10/12 06:52:00;;;;;;;15.45;5.82;;;;;;;;;;4942063;28;20391;-77
2023/10/12 06:57:29;;;;;;;17.98;5.63;;;;;;;;;;4940333;28;20031;-76
2023/10/12 06:59:59;;;;;;;20.00;5.82;;;;;;;;;;4944517;28;20047;-78
2023/10/12 07:02:27;;;;;;;16.42;5.88;;;;;;;;;;4947735;28;20031;-76
2023/10/12 07:05:02;;;;;;;14.95;5.55;;;;;;;;;;4949166;28;20058;-76
2023/10/12 07:07:30;;;;;;;24.17;7.30;;;;;;;;;;4949466;28;20667;-76
2023/10/12 07:12:47;;;;;;;13.90;6.13;;;;;;;;;;4953021;28;20019;-75
2023/10/12 07:15:20;;;;;;;14.73;6.35;;;;;;;;;;4952449;28;20110;-75
2023/10/12 07:17:49;;;;;;;16.25;6.10;;;;;;;;;;4952202;28;20018;-75
2023/10/12 07:23:16;;;;;;;19.52;7.10;;;;;;;;;;4951713;28;20027;-76
2023/10/12 07:25:43;;;;;;;14.18;6.43;;;;;;;;;;4938243;28;20035;-76
2023/10/12 07:28:16;;;;;;;15.32;6.25;;;;;;;;;;4947259;28;20681;-75
2023/10/12 07:30:43;;;;;;;18.48;6.47;;;;;;;;;;4953934;28;20061;-76
2023/10/12 07:33:08;;;;;;;17.00;7.20;;;;;;;;;;4946355;28;20038;-76
2023/10/12 07:35:38;;;;;;;18.73;7.28;;;;;;;;;;4936411;28;20069;-76
2023/10/12 07:38:35;;;;;;;16.73;7.68;;;;;;;;;;4956226;28;20030;-76
2023/10/12 07:41:01;;;;;;;16.40;6.80;;;;;;;;;;4951426;28;20027;-76
2023/10/12 07:43:31;;;;;;;19.35;6.75;;;;;;;;;;4952464;28;20030;-75
2023/10/12 07:46:09;;;;;;;12.80;6.35;;;;;;;;;;4948357;28;20059;-76
2023/10/12 07:48:45;;;;;;;13.27;6.90;;;;;;;;;;4959852;28;20046;-76
2023/10/12 07:51:30;;;;;;;14.95;6.75;;;;;;;;;;4951116;28;20652;-76
2023/10/12 07:54:00;;;;;;;15.30;7.45;;;;;;;;;;4946189;28;20023;-76
2023/10/12 07:56:34;;;;;;;16.20;7.72;;;;;;;;;;4947442;28;20190;-76
2023/10/12 07:59:00;;;;;;;15.82;7.07;;;;;;;;;;4943398;28;20558;-76
2023/10/12 08:03:59;;;;;;;18.27;8.40;;;;;;;;;;4947629;28;20039;-75
2023/10/12 08:09:10;;;;;;;17.58;8.45;;;;;;;;;;4927900;28;20027;-76
2023/10/12 08:11:39;;;;;;;18.05;8.98;;;;;;;;;;4951166;28;20155;-76
2023/10/12 08:14:39;;;;;;;19.52;7.80;;;;;;;;;;4952787;28;20031;-75
2023/10/12 08:19:56;;;;;;;20.33;8.65;;;;;;;;;;4951897;28;20835;-76
2023/10/12 08:22:29;;;;;;;15.93;7.85;;;;;;;;;;4956741;28;20023;-75
2023/10/12 08:25:04;;;;;;;18.92;8.30;;;;;;;;;;4939880;28;20097;-75
2023/10/12 08:27:43;;;;;;;22.70;8.65;;;;;;;;;;4951556;28;20111;-76
2023/10/12 08:30:13;;;;;;;20.02;8.63;;;;;;;;;;4948805;28;20030;-75
2023/10/12 08:32:55;;;;;;;19.63;9.10;;;;;;;;;;4949842;28;20027;-75
2023/10/12 08:35:38;;;;;;;21.80;8.18;;;;;;;;;;4953444;28;20037;-75
2023/10/12 08:38:11;;;;;;;20.52;8.43;;;;;;;;;;4951255;28;20057;-76
2023/10/12 08:40:48;;;;;;;16.13;8.35;;;;;;;;;;4947379;28;20113;-75
2023/10/12 08:43:34;;;;;;;19.85;8.80;;;;;;;;;;4935057;28;20062;-75
2023/10/12 08:46:00;;;;;;;24.30;8.93;;;;;;;;;;4951558;28;20164;-76
2023/10/12 08:48:26;;;;;;;22.88;8.95;;;;;;;;;;4952506;28;20439;-75
2023/10/12 08:51:09;;;;;;;28.73;8.73;;;;;;;;;;4948546;28;20081;-73
2023/10/12 08:53:35;;;;;;;22.10;8.60;;;;;;;;;;4943541;28;20472;-75
2023/10/12 08:56:08;;;;;;;26.77;8.40;;;;;;;;;;4943062;28;20023;-75
2023/10/12 08:58:43;;;;;;;22.80;9.55;;;;;;;;;;4952883;28;20125;-75
2023/10/12 09:01:09;;;;;;;23.73;8.57;;;;;;;;;;4939728;28;20035;-75
2023/10/12 09:03:39;;;;;;;14.93;7.57;;;;;;;;;;4953251;28;20027;-76
2023/10/12 09:06:19;;;;;;;20.40;7.95;;;;;;;;;;4951632;28;20759;-76
2023/10/12 09:08:46;;;;;;;21.73;7.35;;;;;;;;;;4925497;28;20106;-75
2023/10/12 09:13:37;;;;;;;16.63;7.25;;;;;;;;;;4944430;28;20030;-75
2023/10/12 09:16:09;;;;;;;16.45;7.00;;;;;;;;;;4947841;28;20030;-75
2023/10/12 09:18:43;;;;;;;25.02;6.80;;;;;;;;;;4959311;28;20026;-75
2023/10/12 09:24:15;;;;;;;18.20;7.00;;;;;;;;;;4949798;28;20662;-75
2023/10/12 09:26:49;;;;;;;13.98;6.63;;;;;;;;;;4939818;28;20038;-76
2023/10/12 09:29:21;;;;;;;16.25;7.38;;;;;;;;;;4935322;28;20162;-76
2023/10/12 09:31:54;;;;;;;18.95;6.97;;;;;;;;;;4933291;28;20519;-75
2023/10/12 09:34:42;;;;;;;20.38;7.00;;;;;;;;;;4946942;28;20093;-76
2023/10/12 09:37:08;;;;;;;17.27;6.57;;;;;;;;;;4951052;28;20090;-75
2023/10/12 09:39:34;;;;;;;15.95;6.80;;;;;;;;;;4951004;28;20062;-75
2023/10/12 09:42:09;;;;;;;13.35;6.93;;;;;;;;;;4943311;28;20088;-75
2023/10/12 09:44:39;;;;;;;15.00;7.38;;;;;;;;;;4951895;28;20033;-77
2023/10/12 09:47:15;;;;;;;21.40;6.80;;;;;;;;;;4946044;28;20783;-75
2023/10/12 09:49:47;;;;;;;18.85;7.63;;;;;;;;;;4947795;28;20102;-75
2023/10/12 09:52:13;;;;;;;16.50;7.35;;;;;;;;;;4946898;28;20042;-76
2023/10/12 09:54:53;;;;;;;15.52;6.85;;;;;;;;;;4949705;28;20031;-75
2023/10/12 09:57:23;;;;;;;14.13;6.57;;;;;;;;;;4949485;28;20157;-75
2023/10/12 09:59:52;;;;;;;18.58;6.60;;;;;;;;;;4945605;28;20081;-75
2023/10/12 10:02:31;;;;;;;14.85;6.75;;;;;;;;;;4947241;28;20035;-75
2023/10/12 10:05:03;;;;;;;14.40;6.93;;;;;;;;;;4945782;28;20030;-75
2023/10/12 10:07:36;;;;;;;13.68;6.57;;;;;;;;;;4955970;28;20038;-75
2023/10/12 10:10:08;;;;;;;11.98;6.65;;;;;;;;;;4947146;28;20032;-75
2023/10/12 10:12:42;;;;;;;12.70;6.43;;;;;;;;;;4950811;28;20058;-75
2023/10/12 10:15:20;;;;;;;16.92;7.15;;;;;;;;;;4948993;28;20108;-76
2023/10/12 10:17:52;;;;;;;18.65;6.78;;;;;;;;;;4943695;28;20022;-76
2023/10/12 10:23:00;;;;;;;15.70;6.32;;;;;;;;;;4950910;28;20391;-75
2023/10/12 10:25:34;;;;;;;;;;;;;;;;;;4951999;28;20038;-76
2023/10/12 10:28:06;;;;;;;11.20;6.20;;;;;;;;;;4946217;28;19921;-75
2023/10/12 10:30:40;;;;;;;15.23;6.43;;;;;;;;;;4956323;28;20334;-75
2023/10/12 10:33:12;;;;;;;14.00;6.60;;;;;;;;;;4952917;28;20053;-76
2023/10/12 10:36:00;;;;;;;15.23;6.57;;;;;;;;;;4946305;28;20030;-75
2023/10/12 10:38:34;;;;;;;16.63;6.63;;;;;;;;;;4951969;28;20102;-75
2023/10/12 10:41:17;;;;;;;18.88;6.90;;;;;;;;;;4940765;28;20026;-75
2023/10/12 10:43:43;;;;;;;17.67;6.63;;;;;;;;;;4950819;28;20110;-75
2023/10/12 10:46:09;;;;;;;14.75;6.28;;;;;;;;;;4945869;28;20027;-75
2023/10/12 10:48:38;;;;;;;13.95;5.95;;;;;;;;;;4954247;28;20038;-75
2023/10/12 10:51:11;;;;;;;17.33;6.00;;;;;;;;;;4944138;28;20101;-75
2023/10/12 10:53:38;;;;;;;14.18;5.80;;;;;;;;;;4928119;28;20031;-74
2023/10/12 10:56:13;;;;;;;16.27;6.03;;;;;;;;;;4940255;28;20023;-75
2023/10/12 10:58:46;;;;;;;17.88;5.78;;;;;;;;;;4954865;28;20045;-74
2023/10/12 11:01:14;;;;;;;16.23;6.13;;;;;;;;;;4944593;28;20018;-74
2023/10/12 11:03:40;;;;;;;15.43;6.10;;;;;;;;;;4930444;28;20192;-75
2023/10/12 11:06:10;;;;;;;12.48;5.72;;;;;;;;;;4953204;28;20482;-75
2023/10/12 11:08:35;;;;;;;16.88;6.35;;;;;;;;;;4956821;28;20089;-74
2023/10/12 11:13:38;;;;;;;13.50;5.95;;;;;;;;;;4958513;28;20039;-75
2023/10/12 11:16:20;;;;;;;16.98;5.93;;;;;;;;;;4954808;28;20039;-75
2023/10/12 11:18:51;;;;;;;14.98;5.55;;;;;;;;;;4952064;28;20046;-74
2023/10/12 11:21:18;;;;;;;11.57;5.32;;;;;;;;;;4955294;28;20101;-74
2023/10/12 11:23:46;;;;;;;12.35;5.82;;;;;;;;;;4958637;28;20039;-75
2023/10/12 11:26:18;;;;;;;12.57;5.70;;;;;;;;;;4941262;28;20843;-74
2023/10/12 11:28:45;;;;;;;15.82;6.03;;;;;;;;;;4957207;28;20488;-75
2023/10/12 11:31:20;;;;;;;14.30;5.97;;;;;;;;;;4953289;28;20735;-74
2023/10/12 11:33:49;;;;;;;12.50;5.68;;;;;;;;;;4947325;28;20034;-74
2023/10/12 11:36:19;;;;;;;13.98;5.63;;;;;;;;;;4957485;28;20117;-74
2023/10/12 11:38:49;;;;;;;11.85;5.70;;;;;;;;;;4959596;28;20025;-74
2023/10/12 11:41:16;;;;;;;13.40;5.60;;;;;;;;;;4958697;28;20023;-76
2023/10/12 11:43:52;;;;;;;13.48;5.05;;;;;;;;;;4961318;28;20621;-76
2023/10/12 11:46:17;;;;;;;19.13;5.60;;;;;;;;;;4947026;28;20560;-75
2023/10/12 11:48:43;;;;;;;9.90;5.18;;;;;;;;;;4946713;28;20039;-75
2023/10/12 11:51:12;;;;;;;13.75;5.25;;;;;;;;;;4952613;28;20033;-77
2023/10/12 11:53:41;;;;;;;11.65;5.20;;;;;;;;;;4952140;28;20111;-75
2023/10/12 11:56:14;;;;;;;11.20;5.13;;;;;;;;;;4957815;28;20026;-75
2023/10/12 11:58:47;;;;;;;11.98;5.30;;;;;;;;;;4958557;28;20050;-76
2023/10/12 12:01:14;;;;;;;16.83;5.97;;;;;;;;;;4947366;28;20031;-75
2023/10/12 12:03:45;;;;;;;16.25;6.20;;;;;;;;;;4954472;28;20027;-77
2023/10/12 12:06:18;;;;;;;12.00;5.75;;;;;;;;;;4955018;28;20066;-75
2023/10/12 12:08:43;;;;;;;12.27;5.50;;;;;;;;;;4964162;28;20038;-75
2023/10/12 12:11:09;;;;;;;15.63;5.65;;;;;;;;;;4944607;28;20027;-75
2023/10/12 12:13:42;;;;;;;11.85;5.60;;;;;;;;;;4954675;28;20033;-76
2023/10/12 12:16:08;;;;;;;11.15;5.13;;;;;;;;;;4944733;28;20031;-76
2023/10/12 12:18:34;;;;;;;11.23;5.20;;;;;;;;;;4965753;28;20030;-76
2023/10/12 12:21:14;;;;;;;14.50;5.75;;;;;;;;;;4952652;28;20030;-75
2023/10/12 12:23:40;;;;;;;10.70;4.70;;;;;;;;;;4965001;28;20035;-75
2023/10/12 12:26:14;;;;;;;11.93;5.50;;;;;;;;;;4954961;28;20164;-75
2023/10/12 12:28:45;;;;;;;14.80;5.72;;;;;;;;;;4960727;28;20257;-76
2023/10/12 12:31:15;;;;;;;12.93;5.38;;;;;;;;;;4962493;28;20039;-77
2023/10/12 12:33:43;;;;;;;12.90;5.35;;;;;;;;;;4965415;28;20138;-75
2023/10/12 12:36:22;;;;;;;12.93;4.90;;;;;;;;;;4958094;28;20629;-76
2023/10/12 12:38:51;;;;;;;12.75;5.05;;;;;;;;;;4956123;28;20035;-75
2023/10/12 12:41:23;;;;;;;12.35;4.78;;;;;;;;;;4957556;28;20066;-76
2023/10/12 12:43:49;;;;;;;8.70;4.15;;;;;;;;;;4954311;28;20224;-76
2023/10/12 12:46:16;;;;;;;8.23;3.60;;;;;;;;;;4950805;28;20797;-76
2023/10/12 12:48:45;;;;;;;6.78;3.90;;;;;;;;;;4955244;28;20126;-75
2023/10/12 12:51:13;;;;;;;7.28;3.80;;;;;;;;;;4951056;28;20030;-76
2023/10/12 12:53:39;;;;;;;8.07;4.07;;;;;;;;;;4948242;28;20062;-76
2023/10/12 12:56:05;;;;;;;8.27;3.85;;;;;;;;;;4947671;28;20065;-76
2023/10/12 12:58:36;;;;;;;9.60;4.07;;;;;;;;;;4949521;28;20451;-76
2023/10/12 13:01:01;;;;;;;11.88;4.22;;;;;;;;;;4948091;28;20030;-76
2023/10/12 13:03:28;;;;;;;7.30;3.70;;;;;;;;;;4936313;28;20023;-76
2023/10/12 13:05:54;;;;;;;7.75;3.20;;;;;;;;;;4949670;28;20043;-76
2023/10/12 13:08:20;;;;;;;6.43;3.55;;;;;;;;;;4954664;28;20058;-75
2023/10/12 13:10:45;;;;;;;8.13;3.65;;;;;;;;;;4959450;28;20034;-76
2023/10/12 13:13:12;;;;;;;8.45;3.50;;;;;;;;;;4950399;28;20026;-76
2023/10/12 13:15:41;;;;;;;7.65;3.42;;;;;;;;;;4955634;28;20046;-76
2023/10/12 13:18:15;;;;;;;10.45;3.67;;;;;;;;;;4950266;28;20062;-78
2023/10/12 13:20:46;;;;;;;6.53;3.55;;;;;;;;;;4953623;28;20045;-76
2023/10/12 13:23:13;;;;;;;6.72;3.38;;;;;;;;;;4951024;28;20049;-77
2023/10/12 13:25:39;;;;;;;10.25;3.80;;;;;;;;;;4950071;28;20030;-75
2023/10/12 13:28:04;;;;;;;9.00;3.20;;;;;;;;;;4945612;28;20026;-76
2023/10/12 13:30:30;;;;;;;7.18;3.35;;;;;;;;;;4950964;28;20034;-76
2023/10/12 13:32:59;;;;;;;10.02;3.58;;;;;;;;;;4945569;28;20055;-75
2023/10/12 13:38:09;;;;;;;11.38;3.55;;;;;;;;;;4950966;28;20808;-76
2023/10/12 13:40:46;;;;;;;5.35;3.25;;;;;;;;;;4958113;28;20045;-76
2023/10/12 13:43:15;;;;;;;9.70;3.50;;;;;;;;;;4949031;28;20022;-77
2023/10/12 13:45:50;;;;;;;8.90;3.40;;;;;;;;;;4945078;28;20473;-77
2023/10/12 13:48:27;;;;;;;7.72;3.42;;;;;;;;;;4952770;28;20143;-76
2023/10/12 13:51:19;;;;;;;7.25;3.63;;;;;;;;;;4938141;28;20104;-76
2023/10/12 13:53:46;;;;;;;6.47;3.40;;;;;;;;;;4953668;28;20026;-77
2023/10/12 13:56:12;;;;;;;11.02;3.85;;;;;;;;;;4951638;28;20033;-76
2023/10/12 13:58:39;;;;;;;8.77;4.07;;;;;;;;;;4949124;28;20126;-76
2023/10/12 14:01:14;;;;;;;7.65;3.60;;;;;;;;;;4943793;28;20038;-76
2023/10/12 14:03:41;;;;;;;8.30;3.88;;;;;;;;;;4943157;28;20018;-76
2023/10/12 14:06:06;;;;;;;7.88;3.40;;;;;;;;;;4949595;28;20026;-76
2023/10/12 14:08:35;;;;;;;6.55;3.50;;;;;;;;;;4952561;28;20038;-76
2023/10/12 14:11:06;;;;;;;9.05;3.30;;;;;;;;;;4951565;28;20062;-76
2023/10/12 14:13:32;;;;;;;12.15;3.50;;;;;;;;;;4948141;28;20245;-77
2023/10/12 14:15:59;;;;;;;6.35;3.03;;;;;;;;;;4961602;28;20046;-76
2023/10/12 14:18:28;;;;;;;10.13;3.20;;;;;;;;;;4961729;28;20098;-76
2023/10/12 14:20:54;;;;;;;7.55;3.10;;;;;;;;;;4957306;28;20050;-77
2023/10/12 14:23:20;;;;;;;8.07;3.60;;;;;;;;;;4961433;28;20304;-77
2023/10/12 14:25:51;;;;;;;7.90;3.30;;;;;;;;;;4959673;28;20029;-75
2023/10/12 14:28:17;;;;;;;9.80;3.17;;;;;;;;;;4961664;28;20531;-77
2023/10/12 14:30:47;;;;;;;6.90;2.97;;;;;;;;;;4938679;28;20214;-76
2023/10/12 14:33:15;;;;;;;9.65;3.05;;;;;;;;;;4934522;28;20047;-75
2023/10/12 14:35:41;;;;;;;8.50;2.80;;;;;;;;;;4959514;28;20036;-76
2023/10/12 14:38:08;;;;;;;7.15;2.83;;;;;;;;;;4939475;28;20102;-77
2023/10/12 14:40:42;;;;;;;6.65;2.80;;;;;;;;;;4963380;28;20030;-76
2023/10/12 14:43:12;;;;;;;5.97;2.63;;;;;;;;;;4956802;28;20027;-76
2023/10/12 14:45:49;;;;;;;8.75;3.05;;;;;;;;;;4946794;28;20153;-77
2023/10/12 14:48:18;;;;;;;7.05;3.00;;;;;;;;;;4959693;28;20081;-76
2023/10/12 14:50:49;;;;;;;6.63;2.85;;;;;;;;;;4964121;28;20023;-76
2023/10/12 14:53:21;;;;;;;7.65;2.70;;;;;;;;;;4964452;28;20094;-77
2023/10/12 14:55:51;;;;;;;8.18;2.70;;;;;;;;;;4944996;28;20251;-76
2023/10/12 14:58:17;;;;;;;5.95;2.67;;;;;;;;;;4960091;28;20035;-76
2023/10/12 15:00:46;;;;;;;5.60;2.80;;;;;;;;;;4963884;28;20039;-76
2023/10/12 15:03:15;;;;;;;5.45;2.70;;;;;;;;;;4942077;28;20574;-77
2023/10/12 15:05:41;;;;;;;5.32;2.72;;;;;;;;;;4958130;28;20019;-77
2023/10/12 15:08:08;;;;;;;5.68;2.70;;;;;;;;;;4943039;28;20250;-76
2023/10/12 15:10:43;;;;;;;5.32;2.97;;;;;;;;;;4954878;28;20041;-76
2023/10/12 15:13:11;;;;;;;6.00;2.60;;;;;;;;;;4955574;28;20512;-77
2023/10/12 15:15:38;;;;;;;8.27;3.05;;;;;;;;;;4962848;28;20031;-76
2023/10/12 15:18:03;;;;;;;4.95;2.85;;;;;;;;;;4952996;28;20508;-77
2023/10/12 15:20:31;;;;;;;6.15;2.90;;;;;;;;;;4953157;28;20031;-76
2023/10/12 15:22:57;;;;;;;7.55;2.80;;;;;;;;;;4949142;28;20054;-76
2023/10/12 15:25:22;;;;;;;8.48;2.80;;;;;;;;;;4960807;28;20358;-78
2023/10/12 15:27:50;;;;;;;6.82;2.90;;;;;;;;;;4957039;28;20046;-77
2023/10/12 15:30:16;;;;;;;6.93;3.00;;;;;;;;;;4958794;28;20022;-76
2023/10/12 15:32:43;;;;;;;6.15;2.70;;;;;;;;;;4960071;28;20045;-76
2023/10/12 15:35:13;;;;;;;6.70;2.90;;;;;;;;;;4959063;28;20094;-76
2023/10/12 15:37:45;;;;;;;6.55;2.63;;;;;;;;;;4965931;28;20022;-77
2023/10/12 15:40:17;;;;;;;8.13;2.92;;;;;;;;;;4962404;28;20019;-76
2023/10/12 15:42:47;;;;;;;5.55;2.70;;;;;;;;;;4956950;28;20019;-76
2023/10/12 15:45:14;;;;;;;5.95;2.67;;;;;;;;;;4963906;28;20520;-77
2023/10/12 15:47:40;;;;;;;7.95;3.25;;;;;;;;;;4968478;28;20062;-77
2023/10/12 15:50:06;;;;;;;6.78;2.83;;;;;;;;;;4958965;28;20046;-77
2023/10/12 15:52:31;;;;;;;8.43;2.80;;;;;;;;;;4962216;28;20100;-77
2023/10/12 15:54:57;;;;;;;6.70;2.67;;;;;;;;;;4956487;28;20023;-76
2023/10/12 15:57:23;;;;;;;5.20;2.53;;;;;;;;;;4965508;28;20045;-76
2023/10/12 15:59:48;;;;;;;5.53;2.60;;;;;;;;;;4962766;28;20091;-76
2023/10/12 16:02:14;;;;;;;8.30;2.90;;;;;;;;;;4963891;28;20160;-76
2023/10/12 16:04:45;;;;;;;6.50;2.50;;;;;;;;;;4969790;28;20068;-76
2023/10/12 16:07:17;;;;;;;6.50;2.70;;;;;;;;;;4962724;28;20090;-77
2023/10/12 16:09:46;;;;;;;6.90;2.60;;;;;;;;;;4962871;28;20310;-76
2023/10/12 16:12:16;;;;;;;7.10;2.85;;;;;;;;;;4965597;28;20029;-76
2023/10/12 16:14:42;;;;;;;5.88;2.50;;;;;;;;;;4965344;28;20318;-75
2023/10/12 16:17:07;;;;;;;5.82;2.38;;;;;;;;;;4958890;28;20033;-76
2023/10/12 16:19:33;;;;;;;8.40;2.83;;;;;;;;;;4963851;28;20034;-76
2023/10/12 16:21:58;;;;;;;6.07;2.55;;;;;;;;;;4955548;28;20470;-76
2023/10/12 16:24:24;;;;;;;6.07;2.60;;;;;;;;;;4956045;28;20057;-75
2023/10/12 16:26:49;;;;;;;8.50;2.78;;;;;;;;;;4953684;28;20102;-75
2023/10/12 16:29:14;;;;;;;5.55;2.40;;;;;;;;;;4956676;28;20121;-76
2023/10/12 16:31:40;;;;;;;6.88;2.55;;;;;;;;;;4955973;28;20531;-76
2023/10/12 16:34:08;;;;;;;6.57;2.80;;;;;;;;;;4943739;28;20086;-76
2023/10/12 16:36:33;;;;;;;5.50;2.60;;;;;;;;;;4964281;28;20282;-76